Weather at Maliana Airport

Public forecast

Using degrees Celsius for public forecast. Weather courtesy of forecast.io.

Closest aviation weather report (METAR) to Maliana Airport

Report is more than 6 hours old.

Closest report is El Tari Airport, 116.4 nm (215.5 km) SW. Retrieved 2020/10/27 12:00 UTC (9 hours ago):

WATT 271200Z 12004KT 8000 FEW018 27/24 Q1012 NOSIG

Closest aviation forecast (TAF) to Maliana Airport

Closest forecast is Presidente Nicolau Lobato International Airport, 31.5 nm (58.4 km) NE. Retrieved 2020/10/27 18:36 UTC (3 hours ago):

TAF WPDL 271711Z 2718/2806 16005KT 9999 SCT025 FM280000 31008KT 9999 SCT035 PROB30 TEMPO 2803/2806 VRB20G30KT 2000 TSRA BKN012 SCT025CB